sensor_id;sensor_type;location;lat;lon;timestamp;temperature;humidity
37322;DHT22;23697;48.684;9.032;2023-10-13T06:47:13;15.20;65.80
37322;DHT22;23697;48.684;9.032;2023-10-13T06:50:02;15.20;66.10
37322;DHT22;23697;48.684;9.032;2023-10-13T06:59:31;15.30;64.60
37322;DHT22;23697;48.684;9.032;2023-10-13T07:05:03;15.50;64.50
37322;DHT22;23697;48.684;9.032;2023-10-13T07:14:24;15.90;63.20
37322;DHT22;23697;48.684;9.032;2023-10-13T07:17:46;16.00;63.90
37322;DHT22;23697;48.684;9.032;2023-10-13T07:32:51;16.70;62.00
37322;DHT22;23697;48.684;9.032;2023-10-13T07:35:37;16.90;61.60
37322;DHT22;23697;48.684;9.032;2023-10-13T07:38:18;17.10;61.00
37322;DHT22;23697;48.684;9.032;2023-10-13T07:50:58;17.10;60.90
37322;DHT22;23697;48.684;9.032;2023-10-13T08:00:36;17.30;61.60
37322;DHT22;23697;48.684;9.032;2023-10-13T08:03:24;17.50;60.50
37322;DHT22;23697;48.684;9.032;2023-10-13T08:06:24;17.90;59.50
37322;DHT22;23697;48.684;9.032;2023-10-13T08:09:15;18.40;57.20
37322;DHT22;23697;48.684;9.032;2023-10-13T08:11:59;18.80;55.00
37322;DHT22;23697;48.684;9.032;2023-10-13T08:17:36;19.50;53.30
37322;DHT22;23697;48.684;9.032;2023-10-13T08:20:56;19.80;49.50
37322;DHT22;23697;48.684;9.032;2023-10-13T08:29:34;20.50;47.70
37322;DHT22;23697;48.684;9.032;2023-10-13T08:32:30;20.70;47.90
37322;DHT22;23697;48.684;9.032;2023-10-13T08:35:29;21.00;48.10
37322;DHT22;23697;48.684;9.032;2023-10-13T08:38:34;21.30;47.10
37322;DHT22;23697;48.684;9.032;2023-10-13T08:41:23;21.60;47.40
37322;DHT22;23697;48.684;9.032;2023-10-13T08:44:23;21.90;44.40
37322;DHT22;23697;48.684;9.032;2023-10-13T08:53:14;22.20;44.80
37322;DHT22;23697;48.684;9.032;2023-10-13T08:56:01;22.60;43.40
37322;DHT22;23697;48.684;9.032;2023-10-13T08:58:51;22.70;43.50
37322;DHT22;23697;48.684;9.032;2023-10-13T09:04:34;23.10;42.70
37322;DHT22;23697;48.684;9.032;2023-10-13T09:13:42;23.20;43.40
37322;DHT22;23697;48.684;9.032;2023-10-13T09:19:46;23.40;42.30
37322;DHT22;23697;48.684;9.032;2023-10-13T09:22:23;23.60;42.10
37322;DHT22;23697;48.684;9.032;2023-10-13T09:24:55;23.70;40.70
37322;DHT22;23697;48.684;9.032;2023-10-13T09:27:26;23.80;41.70
37322;DHT22;23697;48.684;9.032;2023-10-13T09:36:08;24.10;40.40
37322;DHT22;23697;48.684;9.032;2023-10-13T09:41:40;24.20;39.20
37322;DHT22;23697;48.684;9.032;2023-10-13T09:44:06;24.20;40.00
37322;DHT22;23697;48.684;9.032;2023-10-13T09:46:37;24.50;39.20
37322;DHT22;23697;48.684;9.032;2023-10-13T09:49:12;24.60;39.50
37322;DHT22;23697;48.684;9.032;2023-10-13T09:51:58;24.60;38.20
37322;DHT22;23697;48.684;9.032;2023-10-13T09:54:31;24.90;38.60
37322;DHT22;23697;48.684;9.032;2023-10-13T09:57:21;25.00;37.10
37322;DHT22;23697;48.684;9.032;2023-10-13T10:00:15;25.10;38.00
37322;DHT22;23697;48.684;9.032;2023-10-13T10:06:20;25.50;37.20
37322;DHT22;23697;48.684;9.032;2023-10-13T10:09:06;25.80;38.00
37322;DHT22;23697;48.684;9.032;2023-10-13T10:20:27;26.40;36.30
37322;DHT22;23697;48.684;9.032;2023-10-13T10:23:07;26.50;35.00
37322;DHT22;23697;48.684;9.032;2023-10-13T10:25:54;26.40;34.40
37322;DHT22;23697;48.684;9.032;2023-10-13T10:28:36;26.10;34.20
37322;DHT22;23697;48.684;9.032;2023-10-13T10:31:06;26.10;34.40
37322;DHT22;23697;48.684;9.032;2023-10-13T10:33:42;26.10;33.80
37322;DHT22;23697;48.684;9.032;2023-10-13T10:36:11;25.90;34.50
37322;DHT22;23697;48.684;9.032;2023-10-13T10:38:51;26.20;34.80
37322;DHT22;23697;48.684;9.032;2023-10-13T10:41:24;26.10;33.40
37322;DHT22;23697;48.684;9.032;2023-10-13T10:43:55;26.10;34.80
37322;DHT22;23697;48.684;9.032;2023-10-13T10:46:25;26.10;34.90
37322;DHT22;23697;48.684;9.032;2023-10-13T10:48:52;26.30;34.40
37322;DHT22;23697;48.684;9.032;2023-10-13T10:51:21;26.30;34.20
37322;DHT22;23697;48.684;9.032;2023-10-13T10:53:48;26.20;35.20
37322;DHT22;23697;48.684;9.032;2023-10-13T10:56:16;26.00;35.00
37322;DHT22;23697;48.684;9.032;2023-10-13T10:58:50;26.00;35.50
37322;DHT22;23697;48.684;9.032;2023-10-13T11:01:20;26.10;35.90
37322;DHT22;23697;48.684;9.032;2023-10-13T11:03:53;26.40;34.70
37322;DHT22;23697;48.684;9.032;2023-10-13T11:09:46;26.60;35.80
37322;DHT22;23697;48.684;9.032;2023-10-13T11:12:18;26.70;34.60
37322;DHT22;23697;48.684;9.032;2023-10-13T11:15:04;26.60;35.20
37322;DHT22;23697;48.684;9.032;2023-10-13T11:17:39;26.40;33.30
37322;DHT22;23697;48.684;9.032;2023-10-13T11:20:09;26.30;35.20
37322;DHT22;23697;48.684;9.032;2023-10-13T11:22:47;26.20;34.90
37322;DHT22;23697;48.684;9.032;2023-10-13T11:25:25;26.10;34.20
37322;DHT22;23697;48.684;9.032;2023-10-13T11:28:09;26.00;34.70
37322;DHT22;23697;48.684;9.032;2023-10-13T11:30:44;26.10;34.80
37322;DHT22;23697;48.684;9.032;2023-10-13T11:33:15;26.30;35.70
37322;DHT22;23697;48.684;9.032;2023-10-13T11:35:44;26.50;33.70
37322;DHT22;23697;48.684;9.032;2023-10-13T11:38:23;26.60;33.30
37322;DHT22;23697;48.684;9.032;2023-10-13T11:40:56;26.60;34.40
37322;DHT22;23697;48.684;9.032;2023-10-13T11:43:45;26.80;34.20
37322;DHT22;23697;48.684;9.032;2023-10-13T11:46:39;26.90;33.90
37322;DHT22;23697;48.684;9.032;2023-10-13T11:49:22;26.90;32.10
37322;DHT22;23697;48.684;9.032;2023-10-13T11:52:02;27.00;32.70
37322;DHT22;23697;48.684;9.032;2023-10-13T11:54:45;27.00;33.20
37322;DHT22;23697;48.684;9.032;2023-10-13T11:57:12;27.10;32.10
37322;DHT22;23697;48.684;9.032;2023-10-13T11:59:42;27.10;32.90
37322;DHT22;23697;48.684;9.032;2023-10-13T12:02:20;26.90;32.20
37322;DHT22;23697;48.684;9.032;2023-10-13T12:05:08;27.00;32.60
37322;DHT22;23697;48.684;9.032;2023-10-13T12:07:58;27.00;33.30
37322;DHT22;23697;48.684;9.032;2023-10-13T12:13:46;27.10;31.80
37322;DHT22;23697;48.684;9.032;2023-10-13T12:16:37;27.10;32.40
37322;DHT22;23697;48.684;9.032;2023-10-13T12:19:34;27.20;33.00
37322;DHT22;23697;48.684;9.032;2023-10-13T12:22:07;27.10;31.90
37322;DHT22;23697;48.684;9.032;2023-10-13T12:24:52;27.20;32.10
37322;DHT22;23697;48.684;9.032;2023-10-13T12:30:38;27.50;33.10
37322;DHT22;23697;48.684;9.032;2023-10-13T12:54:59;28.00;31.10
37322;DHT22;23697;48.684;9.032;2023-10-13T12:57:38;28.00;30.40
37322;DHT22;23697;48.684;9.032;2023-10-13T13:00:12;28.10;30.80
37322;DHT22;23697;48.684;9.032;2023-10-13T13:02:51;28.10;29.10
37322;DHT22;23697;48.684;9.032;2023-10-13T13:05:21;28.10;29.10
37322;DHT22;23697;48.684;9.032;2023-10-13T13:07:48;28.10;29.20
37322;DHT22;23697;48.684;9.032;2023-10-13T13:10:19;28.10;29.70
37322;DHT22;23697;48.684;9.032;2023-10-13T13:12:55;28.10;28.30
37322;DHT22;23697;48.684;9.032;2023-10-13T13:15:22;28.10;29.20
37322;DHT22;23697;48.684;9.032;2023-10-13T13:23:55;28.10;29.90
37322;DHT22;23697;48.684;9.032;2023-10-13T13:26:23;28.10;29.60
37322;DHT22;23697;48.684;9.032;2023-10-13T13:28:50;28.10;30.30
37322;DHT22;23697;48.684;9.032;2023-10-13T13:31:16;28.10;30.00
37322;DHT22;23697;48.684;9.032;2023-10-13T13:33:43;28.20;29.80
37322;DHT22;23697;48.684;9.032;2023-10-13T13:36:10;28.30;28.30
37322;DHT22;23697;48.684;9.032;2023-10-13T13:38:39;28.20;29.40
37322;DHT22;23697;48.684;9.032;2023-10-13T13:41:11;28.10;28.30
37322;DHT22;23697;48.684;9.032;2023-10-13T13:43:42;28.10;28.90
37322;DHT22;23697;48.684;9.032;2023-10-13T13:46:20;28.10;28.10
37322;DHT22;23697;48.684;9.032;2023-10-13T13:48:50;28.00;28.80
37322;DHT22;23697;48.684;9.032;2023-10-13T13:51:23;27.90;28.20
37322;DHT22;23697;48.684;9.032;2023-10-13T13:53:53;27.90;28.50
37322;DHT22;23697;48.684;9.032;2023-10-13T13:56:20;27.90;29.10
37322;DHT22;23697;48.684;9.032;2023-10-13T13:58:51;27.90;29.00
37322;DHT22;23697;48.684;9.032;2023-10-13T14:01:18;27.90;28.10
37322;DHT22;23697;48.684;9.032;2023-10-13T14:03:47;27.70;28.60
37322;DHT22;23697;48.684;9.032;2023-10-13T14:06:15;27.80;29.30
37322;DHT22;23697;48.684;9.032;2023-10-13T14:08:59;27.70;28.40
37322;DHT22;23697;48.684;9.032;2023-10-13T14:11:41;27.70;28.90
37322;DHT22;23697;48.684;9.032;2023-10-13T14:14:31;27.70;28.60
37322;DHT22;23697;48.684;9.032;2023-10-13T14:17:00;27.60;28.20
37322;DHT22;23697;48.684;9.032;2023-10-13T14:19:33;27.60;28.00
37322;DHT22;23697;48.684;9.032;2023-10-13T14:22:00;27.50;28.40
37322;DHT22;23697;48.684;9.032;2023-10-13T14:24:34;27.60;27.90
37322;DHT22;23697;48.684;9.032;2023-10-13T14:27:11;27.60;28.40
37322;DHT22;23697;48.684;9.032;2023-10-13T14:29:44;27.60;28.50
37322;DHT22;23697;48.684;9.032;2023-10-13T14:32:26;27.60;28.20
37322;DHT22;23697;48.684;9.032;2023-10-13T14:34:55;27.60;28.60
37322;DHT22;23697;48.684;9.032;2023-10-13T14:37:22;27.60;27.80
37322;DHT22;23697;48.684;9.032;2023-10-13T14:39:54;27.60;28.10
37322;DHT22;23697;48.684;9.032;2023-10-13T14:42:22;27.50;27.30
37322;DHT22;23697;48.684;9.032;2023-10-13T14:44:51;27.40;27.20
37322;DHT22;23697;48.684;9.032;2023-10-13T14:47:21;27.40;26.80
37322;DHT22;23697;48.684;9.032;2023-10-13T14:49:50;27.40;26.60
37322;DHT22;23697;48.684;9.032;2023-10-13T14:52:19;27.30;26.80
37322;DHT22;23697;48.684;9.032;2023-10-13T14:54:46;27.20;27.10
37322;DHT22;23697;48.684;9.032;2023-10-13T14:57:13;27.10;27.10
37322;DHT22;23697;48.684;9.032;2023-10-13T14:59:40;27.10;28.10
37322;DHT22;23697;48.684;9.032;2023-10-13T15:02:08;27.00;28.50
37322;DHT22;23697;48.684;9.032;2023-10-13T15:04:35;26.90;28.20
37322;DHT22;23697;48.684;9.032;2023-10-13T15:07:02;26.80;28.10
37322;DHT22;23697;48.684;9.032;2023-10-13T15:09:28;26.80;29.80
37322;DHT22;23697;48.684;9.032;2023-10-13T15:11:55;26.80;28.30
37322;DHT22;23697;48.684;9.032;2023-10-13T15:14:22;26.70;28.80
37322;DHT22;23697;48.684;9.032;2023-10-13T15:16:49;26.60;29.30
37322;DHT22;23697;48.684;9.032;2023-10-13T15:19:20;26.50;29.30
37322;DHT22;23697;48.684;9.032;2023-10-13T15:22:25;26.40;29.70
37322;DHT22;23697;48.684;9.032;2023-10-13T15:24:56;26.30;29.40
37322;DHT22;23697;48.684;9.032;2023-10-13T15:27:34;26.20;29.10
37322;DHT22;23697;48.684;9.032;2023-10-13T15:30:07;26.20;28.90
37322;DHT22;23697;48.684;9.032;2023-10-13T15:32:45;26.10;29.30
37322;DHT22;23697;48.684;9.032;2023-10-13T15:35:15;26.10;29.40
37322;DHT22;23697;48.684;9.032;2023-10-13T15:37:41;26.00;30.00
37322;DHT22;23697;48.684;9.032;2023-10-13T15:40:12;25.90;28.70
37322;DHT22;23697;48.684;9.032;2023-10-13T15:42:41;25.80;29.10
37322;DHT22;23697;48.684;9.032;2023-10-13T15:45:08;25.70;29.20
37322;DHT22;23697;48.684;9.032;2023-10-13T15:47:42;25.60;30.10
37322;DHT22;23697;48.684;9.032;2023-10-13T15:50:11;25.50;30.00
37322;DHT22;23697;48.684;9.032;2023-10-13T15:52:42;25.40;30.60
37322;DHT22;23697;48.684;9.032;2023-10-13T15:55:11;25.30;29.40
37322;DHT22;23697;48.684;9.032;2023-10-13T15:57:38;25.20;28.80
37322;DHT22;23697;48.684;9.032;2023-10-13T16:00:06;25.20;29.30
37322;DHT22;23697;48.684;9.032;2023-10-13T16:02:49;25.10;28.80
37322;DHT22;23697;48.684;9.032;2023-10-13T16:05:15;25.10;28.50
37322;DHT22;23697;48.684;9.032;2023-10-13T16:07:43;25.00;28.90
37322;DHT22;23697;48.684;9.032;2023-10-13T16:10:10;25.00;28.80
37322;DHT22;23697;48.684;9.032;2023-10-13T16:12:37;24.90;29.30
37322;DHT22;23697;48.684;9.032;2023-10-13T16:15:04;24.70;30.00
37322;DHT22;23697;48.684;9.032;2023-10-13T16:17:33;24.60;30.10
37322;DHT22;23697;48.684;9.032;2023-10-13T16:20:02;24.50;30.00
37322;DHT22;23697;48.684;9.032;2023-10-13T16:22:37;24.40;30.90
37322;DHT22;23697;48.684;9.032;2023-10-13T16:25:05;24.20;31.00
37322;DHT22;23697;48.684;9.032;2023-10-13T16:27:36;24.00;30.80
37322;DHT22;23697;48.684;9.032;2023-10-13T16:30:06;23.90;32.60
37322;DHT22;23697;48.684;9.032;2023-10-13T16:32:34;23.60;33.00
37322;DHT22;23697;48.684;9.032;2023-10-13T16:35:01;23.50;33.20
37322;DHT22;23697;48.684;9.032;2023-10-13T16:37:28;23.40;32.90
37322;DHT22;23697;48.684;9.032;2023-10-13T16:39:56;23.20;33.60
37322;DHT22;23697;48.684;9.032;2023-10-13T16:42:31;23.10;33.70
37322;DHT22;23697;48.684;9.032;2023-10-13T16:45:00;22.90;34.20
37322;DHT22;23697;48.684;9.032;2023-10-13T16:47:46;22.80;34.10
37322;DHT22;23697;48.684;9.032;2023-10-13T16:50:26;22.70;34.10
37322;DHT22;23697;48.684;9.032;2023-10-13T16:52:54;22.60;34.60
37322;DHT22;23697;48.684;9.032;2023-10-13T16:55:22;22.60;35.20
37322;DHT22;23697;48.684;9.032;2023-10-13T16:57:50;22.40;35.50
37322;DHT22;23697;48.684;9.032;2023-10-13T17:00:17;22.40;35.60
37322;DHT22;23697;48.684;9.032;2023-10-13T17:02:44;22.30;35.60
37322;DHT22;23697;48.684;9.032;2023-10-13T17:05:11;22.20;35.80
37322;DHT22;23697;48.684;9.032;2023-10-13T17:07:42;22.10;36.70
37322;DHT22;23697;48.684;9.032;2023-10-13T17:10:12;22.00;36.80
37322;DHT22;23697;48.684;9.032;2023-10-13T17:12:39;21.90;37.50
37322;DHT22;23697;48.684;9.032;2023-10-13T17:15:08;21.70;37.80
37322;DHT22;23697;48.684;9.032;2023-10-13T17:17:39;21.60;38.20
37322;DHT22;23697;48.684;9.032;2023-10-13T22:05:37;19.40;39.70
37322;DHT22;23697;48.684;9.032;2023-10-13T22:27:06;19.60;40.00
37322;DHT22;23697;48.684;9.032;2023-10-13T22:29:33;19.60;40.00
37322;DHT22;23697;48.684;9.032;2023-10-13T22:35:18;19.70;40.10
